Anatife — FGE8389 — position and weather

sailwx.info

Track history (hours):
 
Tides and Currents Weather Stations Pressure Air Temp Water Temp Dewpoint Dewpoint Depression Visibility Wind Speed Wind Dir Waves Ship Positions

Anatife

Last reported at 2017-Jul-19 15:17 UTC. Time now 2017-Jul-24 20:51 UTC.
Position N 47°18' W 002°05'.

Length 41 m; draft 2 m.

Type: Tanker. MMSI: 227681520.

Date/timePositionNaut miles runAvg speedWind from/ knotsBaromVisibWave heightAir tempDewpointWater temp
2017-Jul-19 15:17N 47°18' W 002°05'0 0.0
2017-Jul-19 15:00N 47°18' W 002°05'0 0.0
2017-Jul-19 14:30N 47°18' W 002°05'0 0.0
2017-Jul-19 14:00N 47°18' W 002°05'4 8.0
2017-Jul-19 13:30N 47°17' W 002°10'510.3
2017-Jul-19 13:00N 47°13' W 002°16'510.3
2017-Jul-19 12:30N 47°09' W 002°20'610.5
2017-Jul-19 11:58N 47°05' W 002°25'21 1.9
2017-Jul-19 01:03N 46°44' W 002°21'0 0.0
2017-Jul-19 00:37N 46°44' W 002°21'0 0.0
2017-Jul-19 00:27N 46°44' W 002°21'0 0.0
2017-Jul-18 23:57N 46°44' W 002°21'0 0.0
2017-Jul-18 23:21N 46°44' W 002°21'0 0.0
2017-Jul-18 22:25N 46°44' W 002°21'0 0.0
2017-Jul-18 21:44N 46°44' W 002°21'0 0.0
2017-Jul-18 21:27N 46°44' W 002°21'31 4.0
2017-Jul-18 13:48N 47°14' W 002°15'411.0
2017-Jul-18 13:24N 47°17' W 002°10'4 9.3
2017-Jul-18 13:00N 47°18' W 002°05'0 0.5
2017-Jul-18 12:27N 47°18' W 002°05'0 0.0
2017-Jul-18 12:00N 47°18' W 002°05'0 0.0
2017-Jul-18 11:30N 47°18' W 002°05'0 0.0
2017-Jul-18 11:00N 47°18' W 002°05'0 0.0
2017-Jul-18 10:30N 47°18' W 002°05'0 0.0
2017-Jul-17 19:33N 47°18' W 002°05'0 0.0
2017-Jul-17 19:30N 47°18' W 002°05'0 0.0
2017-Jul-17 19:00N 47°18' W 002°05'0 0.0
2017-Jul-17 18:30N 47°18' W 002°05'0 0.0
2017-Jul-17 18:00N 47°18' W 002°05'0 0.0
2017-Jul-17 17:30N 47°18' W 002°05'0 0.0
2017-Jul-17 17:00N 47°18' W 002°05'0 0.0
2017-Jul-17 15:13N 47°18' W 002°05'0 0.0
2017-Jul-17 15:00N 47°18' W 002°05'0 0.0
2017-Jul-17 14:30N 47°18' W 002°05'0 0.0
2017-Jul-17 14:00N 47°18' W 002°05'0 0.0
2017-Jul-17 13:30N 47°18' W 002°05'0 0.0
2017-Jul-17 13:00N 47°18' W 002°05'0 0.0
2017-Jul-17 12:30N 47°18' W 002°05'0 0.0
2017-Jul-17 12:00N 47°18' W 002°05'0 0.0
2017-Jul-17 11:30N 47°18' W 002°05'0 0.0
2017-Jul-17 11:00N 47°18' W 002°05'0 0.0
2017-Jul-17 10:30N 47°18' W 002°05'0 0.0
2017-Jul-17 10:00N 47°18' W 002°05'0 0.0
2017-Jul-17 09:30N 47°18' W 002°05'0 0.0
2017-Jul-17 09:00N 47°18' W 002°05'0 0.0
2017-Jul-17 08:30N 47°18' W 002°05'0 0.0
2017-Jul-17 08:00N 47°18' W 002°05'0 0.0
2017-Jul-17 07:30N 47°18' W 002°05'0 0.0
2017-Jul-17 07:00N 47°18' W 002°05'0 0.0
2017-Jul-17 06:30N 47°18' W 002°05'0 0.0
2017-Jul-17 06:00N 47°18' W 002°05'0 0.0
2017-Jul-17 05:30N 47°18' W 002°05'0 0.0
2017-Jul-17 05:00N 47°18' W 002°05'0 0.0
2017-Jul-17 04:30N 47°18' W 002°05'0 0.0
2017-Jul-17 04:00N 47°18' W 002°05'0 0.0
2017-Jul-17 03:30N 47°18' W 002°05'0 0.0
2017-Jul-17 03:00N 47°18' W 002°05'0 0.0
2017-Jul-17 02:30N 47°18' W 002°05'0 0.0
2017-Jul-17 02:00N 47°18' W 002°05'0 0.0
2017-Jul-17 01:30N 47°18' W 002°05'0 0.0
2017-Jul-17 01:00N 47°18' W 002°05'0 0.0
2017-Jul-17 00:30N 47°18' W 002°05'0 0.0
2017-Jul-17 00:00N 47°18' W 002°05'0 0.0
2017-Jul-16 23:30N 47°18' W 002°05'0 0.0
2017-Jul-16 23:00N 47°18' W 002°05'0 0.0
2017-Jul-16 22:30N 47°18' W 002°05'0 0.0
2017-Jul-16 22:00N 47°18' W 002°05'0 0.0
2017-Jul-16 21:30N 47°18' W 002°05'0 0.0
2017-Jul-16 21:00N 47°18' W 002°05'0 0.0
2017-Jul-16 20:30N 47°18' W 002°05'0 0.0
2017-Jul-16 20:00N 47°18' W 002°05'0 0.0
2017-Jul-16 19:30N 47°18' W 002°05'0 0.0
2017-Jul-16 19:00N 47°18' W 002°05'0 0.0
2017-Jul-16 18:30N 47°18' W 002°05'0 0.0
2017-Jul-16 18:00N 47°18' W 002°05'0 0.0
2017-Jul-16 17:30N 47°18' W 002°05'0 0.0
2017-Jul-16 17:00N 47°18' W 002°05'0 0.0
2017-Jul-16 16:30N 47°18' W 002°05'0 0.0
2017-Jul-16 16:00N 47°18' W 002°05'0 0.0
2017-Jul-16 15:30N 47°18' W 002°05'0 0.0
2017-Jul-16 15:00N 47°18' W 002°05'0 0.0
2017-Jul-16 14:30N 47°18' W 002°05'0 0.0
2017-Jul-16 14:00N 47°18' W 002°05'0 0.0
2017-Jul-16 13:30N 47°18' W 002°05'0 0.0
2017-Jul-16 13:00N 47°18' W 002°05'0 0.0
2017-Jul-16 12:30N 47°18' W 002°05'0 0.0
2017-Jul-16 12:00N 47°18' W 002°05'0 0.0
2017-Jul-16 11:30N 47°18' W 002°05'0 0.0
2017-Jul-16 11:00N 47°18' W 002°05'0 0.0
2017-Jul-16 10:30N 47°18' W 002°05'0 0.0
2017-Jul-16 10:00N 47°18' W 002°05'0 0.0
2017-Jul-16 09:30N 47°18' W 002°05'0 0.0
2017-Jul-16 09:00N 47°18' W 002°05'0 0.0
2017-Jul-16 08:30N 47°18' W 002°05'0 0.0
2017-Jul-16 08:00N 47°18' W 002°05'0 0.0
2017-Jul-16 07:30N 47°18' W 002°05'0 0.0
2017-Jul-16 07:00N 47°18' W 002°05'0 0.0
2017-Jul-16 06:30N 47°18' W 002°05'0 0.0
2017-Jul-16 06:00N 47°18' W 002°05'0 0.0
2017-Jul-16 05:30N 47°18' W 002°05'0 0.0
2017-Jul-16 05:00N 47°18' W 002°05'0 0.0
2017-Jul-16 04:30N 47°18' W 002°05'0 0.0
2017-Jul-16 04:00N 47°18' W 002°05'0 0.0
2017-Jul-16 03:30N 47°18' W 002°05'0 0.0
2017-Jul-16 03:00N 47°18' W 002°05'0 0.0
2017-Jul-16 02:30N 47°18' W 002°05'0 0.0
2017-Jul-16 02:00N 47°18' W 002°05'0 0.0
2017-Jul-16 01:30N 47°18' W 002°05'0 0.0
2017-Jul-16 01:00N 47°18' W 002°05'0 0.0
2017-Jul-16 00:30N 47°18' W 002°05'0 0.0
2017-Jul-16 00:00N 47°18' W 002°05'0 0.0
2017-Jul-15 23:30N 47°18' W 002°05'0 0.0
2017-Jul-15 23:00N 47°18' W 002°05'0 0.0
2017-Jul-15 22:30N 47°18' W 002°05'0 0.0
2017-Jul-15 22:00N 47°18' W 002°05'0 0.0
2017-Jul-15 21:30N 47°18' W 002°05'0 0.0
2017-Jul-15 21:00N 47°18' W 002°05'0 0.0
2017-Jul-15 20:30N 47°18' W 002°05'0 0.0
2017-Jul-15 20:00N 47°18' W 002°05'0 0.0
2017-Jul-15 19:30N 47°18' W 002°05'0 0.0
2017-Jul-15 19:00N 47°18' W 002°05'0 0.0
2017-Jul-15 18:30N 47°18' W 002°05'0 0.0
2017-Jul-15 18:00N 47°18' W 002°05'0 0.0
2017-Jul-15 17:30N 47°18' W 002°05'0 0.0
2017-Jul-15 17:00N 47°18' W 002°05'0 0.0
2017-Jul-15 16:30N 47°18' W 002°05'0 0.0
2017-Jul-15 16:00N 47°18' W 002°05'0 0.0
2017-Jul-15 15:30N 47°18' W 002°05'0 0.0
2017-Jul-15 15:00N 47°18' W 002°05'0 0.0
2017-Jul-15 14:00N 47°18' W 002°05'0 0.0
2017-Jul-15 13:30N 47°18' W 002°05'0 0.0
2017-Jul-15 13:00N 47°18' W 002°05'0 0.0
2017-Jul-15 12:30N 47°18' W 002°05'0 0.0
2017-Jul-15 12:00N 47°18' W 002°05'0 0.0
2017-Jul-15 11:30N 47°18' W 002°05'0 0.0
2017-Jul-15 11:00N 47°18' W 002°05'0 0.0
2017-Jul-15 10:30N 47°18' W 002°05'0 0.0
2017-Jul-15 10:00N 47°18' W 002°05'0 0.0
2017-Jul-15 09:30N 47°18' W 002°05'0 0.0
2017-Jul-15 09:00N 47°18' W 002°05'0 0.0
2017-Jul-15 08:30N 47°18' W 002°05'0 0.0
2017-Jul-15 08:00N 47°18' W 002°05'0 0.0
2017-Jul-15 07:30N 47°18' W 002°05'0 0.0
2017-Jul-15 07:00N 47°18' W 002°05'0 0.0
2017-Jul-15 06:30N 47°18' W 002°05'0 0.0
2017-Jul-15 06:00N 47°18' W 002°05'0 0.0
2017-Jul-15 05:30N 47°18' W 002°05'0 0.0
2017-Jul-15 05:00N 47°18' W 002°05'0 0.0
2017-Jul-15 04:30N 47°18' W 002°05'0 0.0
2017-Jul-15 04:00N 47°18' W 002°05'0 0.0
2017-Jul-15 03:30N 47°18' W 002°05'0 0.0
2017-Jul-15 03:00N 47°18' W 002°05'0 0.0
2017-Jul-15 02:30N 47°18' W 002°05'0 0.0
2017-Jul-15 02:00N 47°18' W 002°05'0 0.0
2017-Jul-15 01:30N 47°18' W 002°05'0 0.0
2017-Jul-15 01:01N 47°18' W 002°05'0 0.0
2017-Jul-15 00:30N 47°18' W 002°05'0 0.0
2017-Jul-15 00:00N 47°18' W 002°05'0 0.0
2017-Jul-14 23:30N 47°18' W 002°05'0 0.0
2017-Jul-14 23:00N 47°18' W 002°05'0 0.0
2017-Jul-14 22:30N 47°18' W 002°05'0 0.0
2017-Jul-14 22:00N 47°18' W 002°05'0 0.0
2017-Jul-14 21:30N 47°18' W 002°05'0 0.0
2017-Jul-14 21:00N 47°18' W 002°05'0 0.0
2017-Jul-14 20:30N 47°18' W 002°05'0 0.0
2017-Jul-14 20:00N 47°18' W 002°05'0 0.0
2017-Jul-14 19:30N 47°18' W 002°05'0 0.0
2017-Jul-14 19:00N 47°18' W 002°05'0 0.0
2017-Jul-14 18:30N 47°18' W 002°05'0 0.0
2017-Jul-14 18:00N 47°18' W 002°05'0 0.0
2017-Jul-14 17:30N 47°18' W 002°05'0 0.0
2017-Jul-14 17:00N 47°18' W 002°05'0 0.0
2017-Jul-14 16:30N 47°18' W 002°05'0 0.0
2017-Jul-14 16:00N 47°18' W 002°05'0 0.0
2017-Jul-14 15:30N 47°18' W 002°05'0 0.0
2017-Jul-14 15:00N 47°18' W 002°05'0 0.0
2017-Jul-14 14:30N 47°18' W 002°05'0 0.0
2017-Jul-14 14:00N 47°18' W 002°05'0 0.0
2017-Jul-14 13:30N 47°18' W 002°05'0 0.0
2017-Jul-14 13:00N 47°18' W 002°05'0 0.0
2017-Jul-14 12:30N 47°18' W 002°05'0 0.0
2017-Jul-14 12:00N 47°18' W 002°05'0 0.0
2017-Jul-14 11:30N 47°18' W 002°05'0 0.0
2017-Jul-14 11:00N 47°18' W 002°05'0 0.0
2017-Jul-14 10:30N 47°18' W 002°05'0 0.0
2017-Jul-14 10:00N 47°18' W 002°05'0 0.0
2017-Jul-14 09:30N 47°18' W 002°05'0 0.0
2017-Jul-14 09:00N 47°18' W 002°05'0 0.0
2017-Jul-14 08:30N 47°18' W 002°05'0 0.0
2017-Jul-14 08:00N 47°18' W 002°05'0 0.0
2017-Jul-14 07:30N 47°18' W 002°05'0 0.0
2017-Jul-14 07:00N 47°18' W 002°05'0 0.0
2017-Jul-14 06:30N 47°18' W 002°05'0 0.0
2017-Jul-14 06:00N 47°18' W 002°05'0 0.0
2017-Jul-14 05:30N 47°18' W 002°05'0 0.0
2017-Jul-14 05:00N 47°18' W 002°05'0 0.0
2017-Jul-14 04:30N 47°18' W 002°05'0 0.0
2017-Jul-14 04:00N 47°18' W 002°05'0 0.0
2017-Jul-14 03:30N 47°18' W 002°05'0 0.0
2017-Jul-14 03:00N 47°18' W 002°05'0 0.0
2017-Jul-14 02:30N 47°18' W 002°05'0 0.0
2017-Jul-14 01:59N 47°18' W 002°05'0 0.0
2017-Jul-14 01:30N 47°18' W 002°05'0 0.0
2017-Jul-14 01:00N 47°18' W 002°05'0 0.0
2017-Jul-14 00:30N 47°18' W 002°05'0 0.0
2017-Jul-14 00:00N 47°18' W 002°05'0 0.0
2017-Jul-13 23:30N 47°18' W 002°05'0 0.0
2017-Jul-13 23:00N 47°18' W 002°05'0 0.0
2017-Jul-13 22:30N 47°18' W 002°05'0 0.0
2017-Jul-13 22:00N 47°18' W 002°05'0 0.0
2017-Jul-13 21:30N 47°18' W 002°05'1 2.4
2017-Jul-13 21:00N 47°18' W 002°07'4 8.8
2017-Jul-13 20:30N 47°16' W 002°12'5 9.4
2017-Jul-13 20:00N 47°13' W 002°17'510.2
2017-Jul-13 19:30N 47°13' W 002°25'510.5
2017-Jul-13 19:00N 47°14' W 002°32'510.7
2017-Jul-13 18:30N 47°15' W 002°40'510.8
2017-Jul-13 18:00N 47°16' W 002°48'510.8
2017-Jul-13 17:30N 47°18' W 002°55'510.7
2017-Jul-13 17:00N 47°20' W 003°03'5 0.4
2017-Jul-13 06:08N 47°21' W 003°09'0 2.1
2017-Jul-13 06:00N 47°21' W 003°09'0 0.3
2017-Jul-13 05:30N 47°21' W 003°09'1 1.6
2017-Jul-13 05:00N 47°21' W 003°08'2 4.3
2017-Jul-13 04:30N 47°20' W 003°05'3 5.6
2017-Jul-13 04:00N 47°20' W 003°01'4 8.8
2017-Jul-13 03:30N 47°18' W 002°55'5 9.5
2017-Jul-13 03:00N 47°16' W 002°48'5 9.3
2017-Jul-13 02:29N 47°15' W 002°42'5 9.1
2017-Jul-13 01:58N 47°14' W 002°35'4 9.0
2017-Jul-13 01:30N 47°14' W 002°29'5 9.3
2017-Jul-13 01:00N 47°13' W 002°22'4 8.6
2017-Jul-13 00:30N 47°14' W 002°16'611.7
2017-Jul-13 00:00N 47°18' W 002°09'3 5.9
2017-Jul-12 23:30N 47°18' W 002°05'0 0.0
2017-Jul-12 23:00N 47°18' W 002°05'0 0.0
2017-Jul-12 22:30N 47°18' W 002°05'0 0.0
2017-Jul-12 22:00N 47°18' W 002°05'0 0.0
2017-Jul-12 21:30N 47°18' W 002°05'0 0.0
2017-Jul-12 21:00N 47°18' W 002°05'0 0.0
2017-Jul-12 20:30N 47°18' W 002°05'0 0.0
2017-Jul-12 20:00N 47°18' W 002°05'0 0.0
2017-Jul-12 19:30N 47°18' W 002°05'0 0.0
2017-Jul-12 19:00N 47°18' W 002°05'0 0.0
2017-Jul-12 18:30N 47°18' W 002°05'0 0.0
2017-Jul-12 18:00N 47°18' W 002°05'0 0.0
2017-Jul-12 17:30N 47°18' W 002°05'0 0.0
2017-Jul-12 17:00N 47°18' W 002°05'0 0.0
2017-Jul-12 16:30N 47°18' W 002°05'0 0.0
2017-Jul-12 16:00N 47°18' W 002°05'0 0.0
2017-Jul-12 15:30N 47°18' W 002°05'0 0.0
2017-Jul-12 15:00N 47°18' W 002°05'0 0.0
2017-Jul-12 14:00N 47°18' W 002°05'  
Track history (hours):
 
Tides and Currents Weather Stations Pressure Air Temp Water Temp Dewpoint Dewpoint Depression Visibility Wind Speed Wind Dir Waves Ship Positions

Anatife

Last reported at 2017-Jul-19 15:17 UTC. Time now 2017-Jul-24 20:51 UTC.
Position N 47°18' W 002°05'.

Length 41 m; draft 2 m.

Type: Tanker. MMSI: 227681520.

Date/timePositionNaut miles runAvg speedWind from/ knotsBaromVisibWave heightAir tempDewpointWater temp
2017-Jul-19 15:17N 47°18' W 002°05'0 0.0
2017-Jul-19 15:00N 47°18' W 002°05'0 0.0
2017-Jul-19 14:30N 47°18' W 002°05'0 0.0
2017-Jul-19 14:00N 47°18' W 002°05'4 8.0
2017-Jul-19 13:30N 47°17' W 002°10'510.3
2017-Jul-19 13:00N 47°13' W 002°16'510.3
2017-Jul-19 12:30N 47°09' W 002°20'610.5
2017-Jul-19 11:58N 47°05' W 002°25'21 1.9
2017-Jul-19 01:03N 46°44' W 002°21'0 0.0
2017-Jul-19 00:37N 46°44' W 002°21'0 0.0
2017-Jul-19 00:27N 46°44' W 002°21'0 0.0
2017-Jul-18 23:57N 46°44' W 002°21'0 0.0
2017-Jul-18 23:21N 46°44' W 002°21'0 0.0
2017-Jul-18 22:25N 46°44' W 002°21'0 0.0
2017-Jul-18 21:44N 46°44' W 002°21'0 0.0
2017-Jul-18 21:27N 46°44' W 002°21'31 4.0
2017-Jul-18 13:48N 47°14' W 002°15'411.0
2017-Jul-18 13:24N 47°17' W 002°10'4 9.3
2017-Jul-18 13:00N 47°18' W 002°05'0 0.5
2017-Jul-18 12:27N 47°18' W 002°05'0 0.0
2017-Jul-18 12:00N 47°18' W 002°05'0 0.0
2017-Jul-18 11:30N 47°18' W 002°05'0 0.0
2017-Jul-18 11:00N 47°18' W 002°05'0 0.0
2017-Jul-18 10:30N 47°18' W 002°05'0 0.0
2017-Jul-17 19:33N 47°18' W 002°05'0 0.0
2017-Jul-17 19:30N 47°18' W 002°05'0 0.0
2017-Jul-17 19:00N 47°18' W 002°05'0 0.0
2017-Jul-17 18:30N 47°18' W 002°05'0 0.0
2017-Jul-17 18:00N 47°18' W 002°05'0 0.0
2017-Jul-17 17:30N 47°18' W 002°05'0 0.0
2017-Jul-17 17:00N 47°18' W 002°05'0 0.0
2017-Jul-17 15:13N 47°18' W 002°05'0 0.0
2017-Jul-17 15:00N 47°18' W 002°05'0 0.0
2017-Jul-17 14:30N 47°18' W 002°05'0 0.0
2017-Jul-17 14:00N 47°18' W 002°05'0 0.0
2017-Jul-17 13:30N 47°18' W 002°05'0 0.0
2017-Jul-17 13:00N 47°18' W 002°05'0 0.0
2017-Jul-17 12:30N 47°18' W 002°05'0 0.0
2017-Jul-17 12:00N 47°18' W 002°05'0 0.0
2017-Jul-17 11:30N 47°18' W 002°05'0 0.0
2017-Jul-17 11:00N 47°18' W 002°05'0 0.0
2017-Jul-17 10:30N 47°18' W 002°05'0 0.0
2017-Jul-17 10:00N 47°18' W 002°05'0 0.0
2017-Jul-17 09:30N 47°18' W 002°05'0 0.0
2017-Jul-17 09:00N 47°18' W 002°05'0 0.0
2017-Jul-17 08:30N 47°18' W 002°05'0 0.0
2017-Jul-17 08:00N 47°18' W 002°05'0 0.0
2017-Jul-17 07:30N 47°18' W 002°05'0 0.0
2017-Jul-17 07:00N 47°18' W 002°05'0 0.0
2017-Jul-17 06:30N 47°18' W 002°05'0 0.0
2017-Jul-17 06:00N 47°18' W 002°05'0 0.0
2017-Jul-17 05:30N 47°18' W 002°05'0 0.0
2017-Jul-17 05:00N 47°18' W 002°05'0 0.0
2017-Jul-17 04:30N 47°18' W 002°05'0 0.0
2017-Jul-17 04:00N 47°18' W 002°05'0 0.0
2017-Jul-17 03:30N 47°18' W 002°05'0 0.0
2017-Jul-17 03:00N 47°18' W 002°05'0 0.0
2017-Jul-17 02:30N 47°18' W 002°05'0 0.0
2017-Jul-17 02:00N 47°18' W 002°05'0 0.0
2017-Jul-17 01:30N 47°18' W 002°05'0 0.0
2017-Jul-17 01:00N 47°18' W 002°05'0 0.0
2017-Jul-17 00:30N 47°18' W 002°05'0 0.0
2017-Jul-17 00:00N 47°18' W 002°05'0 0.0
2017-Jul-16 23:30N 47°18' W 002°05'0 0.0
2017-Jul-16 23:00N 47°18' W 002°05'0 0.0
2017-Jul-16 22:30N 47°18' W 002°05'0 0.0
2017-Jul-16 22:00N 47°18' W 002°05'0 0.0
2017-Jul-16 21:30N 47°18' W 002°05'0 0.0
2017-Jul-16 21:00N 47°18' W 002°05'0 0.0
2017-Jul-16 20:30N 47°18' W 002°05'0 0.0
2017-Jul-16 20:00N 47°18' W 002°05'0 0.0
2017-Jul-16 19:30N 47°18' W 002°05'0 0.0
2017-Jul-16 19:00N 47°18' W 002°05'0 0.0
2017-Jul-16 18:30N 47°18' W 002°05'0 0.0
2017-Jul-16 18:00N 47°18' W 002°05'0 0.0
2017-Jul-16 17:30N 47°18' W 002°05'0 0.0
2017-Jul-16 17:00N 47°18' W 002°05'0 0.0
2017-Jul-16 16:30N 47°18' W 002°05'0 0.0
2017-Jul-16 16:00N 47°18' W 002°05'0 0.0
2017-Jul-16 15:30N 47°18' W 002°05'0 0.0
2017-Jul-16 15:00N 47°18' W 002°05'0 0.0
2017-Jul-16 14:30N 47°18' W 002°05'0 0.0
2017-Jul-16 14:00N 47°18' W 002°05'0 0.0
2017-Jul-16 13:30N 47°18' W 002°05'0 0.0
2017-Jul-16 13:00N 47°18' W 002°05'0 0.0
2017-Jul-16 12:30N 47°18' W 002°05'0 0.0
2017-Jul-16 12:00N 47°18' W 002°05'0 0.0
2017-Jul-16 11:30N 47°18' W 002°05'0 0.0
2017-Jul-16 11:00N 47°18' W 002°05'0 0.0
2017-Jul-16 10:30N 47°18' W 002°05'0 0.0
2017-Jul-16 10:00N 47°18' W 002°05'0 0.0
2017-Jul-16 09:30N 47°18' W 002°05'0 0.0
2017-Jul-16 09:00N 47°18' W 002°05'0 0.0
2017-Jul-16 08:30N 47°18' W 002°05'0 0.0
2017-Jul-16 08:00N 47°18' W 002°05'0 0.0
2017-Jul-16 07:30N 47°18' W 002°05'0 0.0
2017-Jul-16 07:00N 47°18' W 002°05'0 0.0
2017-Jul-16 06:30N 47°18' W 002°05'0 0.0
2017-Jul-16 06:00N 47°18' W 002°05'0 0.0
2017-Jul-16 05:30N 47°18' W 002°05'0 0.0
2017-Jul-16 05:00N 47°18' W 002°05'0 0.0
2017-Jul-16 04:30N 47°18' W 002°05'0 0.0
2017-Jul-16 04:00N 47°18' W 002°05'0 0.0
2017-Jul-16 03:30N 47°18' W 002°05'0 0.0
2017-Jul-16 03:00N 47°18' W 002°05'0 0.0
2017-Jul-16 02:30N 47°18' W 002°05'0 0.0
2017-Jul-16 02:00N 47°18' W 002°05'0 0.0
2017-Jul-16 01:30N 47°18' W 002°05'0 0.0
2017-Jul-16 01:00N 47°18' W 002°05'0 0.0
2017-Jul-16 00:30N 47°18' W 002°05'0 0.0
2017-Jul-16 00:00N 47°18' W 002°05'0 0.0
2017-Jul-15 23:30N 47°18' W 002°05'0 0.0
2017-Jul-15 23:00N 47°18' W 002°05'0 0.0
2017-Jul-15 22:30N 47°18' W 002°05'0 0.0
2017-Jul-15 22:00N 47°18' W 002°05'0 0.0
2017-Jul-15 21:30N 47°18' W 002°05'0 0.0
2017-Jul-15 21:00N 47°18' W 002°05'0 0.0
2017-Jul-15 20:30N 47°18' W 002°05'0 0.0
2017-Jul-15 20:00N 47°18' W 002°05'0 0.0
2017-Jul-15 19:30N 47°18' W 002°05'0 0.0
2017-Jul-15 19:00N 47°18' W 002°05'0 0.0
2017-Jul-15 18:30N 47°18' W 002°05'0 0.0
2017-Jul-15 18:00N 47°18' W 002°05'0 0.0
2017-Jul-15 17:30N 47°18' W 002°05'0 0.0
2017-Jul-15 17:00N 47°18' W 002°05'0 0.0
2017-Jul-15 16:30N 47°18' W 002°05'0 0.0
2017-Jul-15 16:00N 47°18' W 002°05'0 0.0
2017-Jul-15 15:30N 47°18' W 002°05'0 0.0
2017-Jul-15 15:00N 47°18' W 002°05'0 0.0
2017-Jul-15 14:00N 47°18' W 002°05'0 0.0
2017-Jul-15 13:30N 47°18' W 002°05'0 0.0
2017-Jul-15 13:00N 47°18' W 002°05'0 0.0
2017-Jul-15 12:30N 47°18' W 002°05'0 0.0
2017-Jul-15 12:00N 47°18' W 002°05'0 0.0
2017-Jul-15 11:30N 47°18' W 002°05'0 0.0
2017-Jul-15 11:00N 47°18' W 002°05'0 0.0
2017-Jul-15 10:30N 47°18' W 002°05'0 0.0
2017-Jul-15 10:00N 47°18' W 002°05'0 0.0
2017-Jul-15 09:30N 47°18' W 002°05'0 0.0
2017-Jul-15 09:00N 47°18' W 002°05'0 0.0
2017-Jul-15 08:30N 47°18' W 002°05'0 0.0
2017-Jul-15 08:00N 47°18' W 002°05'0 0.0
2017-Jul-15 07:30N 47°18' W 002°05'0 0.0
2017-Jul-15 07:00N 47°18' W 002°05'0 0.0
2017-Jul-15 06:30N 47°18' W 002°05'0 0.0
2017-Jul-15 06:00N 47°18' W 002°05'0 0.0
2017-Jul-15 05:30N 47°18' W 002°05'0 0.0
2017-Jul-15 05:00N 47°18' W 002°05'0 0.0
2017-Jul-15 04:30N 47°18' W 002°05'0 0.0
2017-Jul-15 04:00N 47°18' W 002°05'0 0.0
2017-Jul-15 03:30N 47°18' W 002°05'0 0.0
2017-Jul-15 03:00N 47°18' W 002°05'0 0.0
2017-Jul-15 02:30N 47°18' W 002°05'0 0.0
2017-Jul-15 02:00N 47°18' W 002°05'0 0.0
2017-Jul-15 01:30N 47°18' W 002°05'0 0.0
2017-Jul-15 01:01N 47°18' W 002°05'0 0.0
2017-Jul-15 00:30N 47°18' W 002°05'0 0.0
2017-Jul-15 00:00N 47°18' W 002°05'0 0.0
2017-Jul-14 23:30N 47°18' W 002°05'0 0.0
2017-Jul-14 23:00N 47°18' W 002°05'0 0.0
2017-Jul-14 22:30N 47°18' W 002°05'0 0.0
2017-Jul-14 22:00N 47°18' W 002°05'0 0.0
2017-Jul-14 21:30N 47°18' W 002°05'0 0.0
2017-Jul-14 21:00N 47°18' W 002°05'0 0.0
2017-Jul-14 20:30N 47°18' W 002°05'0 0.0
2017-Jul-14 20:00N 47°18' W 002°05'0 0.0
2017-Jul-14 19:30N 47°18' W 002°05'0 0.0
2017-Jul-14 19:00N 47°18' W 002°05'0 0.0
2017-Jul-14 18:30N 47°18' W 002°05'0 0.0
2017-Jul-14 18:00N 47°18' W 002°05'0 0.0
2017-Jul-14 17:30N 47°18' W 002°05'0 0.0
2017-Jul-14 17:00N 47°18' W 002°05'0 0.0
2017-Jul-14 16:30N 47°18' W 002°05'0 0.0
2017-Jul-14 16:00N 47°18' W 002°05'0 0.0
2017-Jul-14 15:30N 47°18' W 002°05'0 0.0
2017-Jul-14 15:00N 47°18' W 002°05'0 0.0
2017-Jul-14 14:30N 47°18' W 002°05'0 0.0
2017-Jul-14 14:00N 47°18' W 002°05'0 0.0
2017-Jul-14 13:30N 47°18' W 002°05'0 0.0
2017-Jul-14 13:00N 47°18' W 002°05'0 0.0
2017-Jul-14 12:30N 47°18' W 002°05'0 0.0
2017-Jul-14 12:00N 47°18' W 002°05'0 0.0
2017-Jul-14 11:30N 47°18' W 002°05'0 0.0
2017-Jul-14 11:00N 47°18' W 002°05'0 0.0
2017-Jul-14 10:30N 47°18' W 002°05'0 0.0
2017-Jul-14 10:00N 47°18' W 002°05'0 0.0
2017-Jul-14 09:30N 47°18' W 002°05'0 0.0
2017-Jul-14 09:00N 47°18' W 002°05'0 0.0
2017-Jul-14 08:30N 47°18' W 002°05'0 0.0
2017-Jul-14 08:00N 47°18' W 002°05'0 0.0
2017-Jul-14 07:30N 47°18' W 002°05'0 0.0
2017-Jul-14 07:00N 47°18' W 002°05'0 0.0
2017-Jul-14 06:30N 47°18' W 002°05'0 0.0
2017-Jul-14 06:00N 47°18' W 002°05'0 0.0
2017-Jul-14 05:30N 47°18' W 002°05'0 0.0
2017-Jul-14 05:00N 47°18' W 002°05'0 0.0
2017-Jul-14 04:30N 47°18' W 002°05'0 0.0
2017-Jul-14 04:00N 47°18' W 002°05'0 0.0
2017-Jul-14 03:30N 47°18' W 002°05'0 0.0
2017-Jul-14 03:00N 47°18' W 002°05'0 0.0
2017-Jul-14 02:30N 47°18' W 002°05'0 0.0
2017-Jul-14 01:59N 47°18' W 002°05'0 0.0
2017-Jul-14 01:30N 47°18' W 002°05'0 0.0
2017-Jul-14 01:00N 47°18' W 002°05'0 0.0
2017-Jul-14 00:30N 47°18' W 002°05'0 0.0
2017-Jul-14 00:00N 47°18' W 002°05'0 0.0
2017-Jul-13 23:30N 47°18' W 002°05'0 0.0
2017-Jul-13 23:00N 47°18' W 002°05'0 0.0
2017-Jul-13 22:30N 47°18' W 002°05'0 0.0
2017-Jul-13 22:00N 47°18' W 002°05'0 0.0
2017-Jul-13 21:30N 47°18' W 002°05'1 2.4
2017-Jul-13 21:00N 47°18' W 002°07'4 8.8
2017-Jul-13 20:30N 47°16' W 002°12'5 9.4
2017-Jul-13 20:00N 47°13' W 002°17'510.2
2017-Jul-13 19:30N 47°13' W 002°25'510.5
2017-Jul-13 19:00N 47°14' W 002°32'510.7
2017-Jul-13 18:30N 47°15' W 002°40'510.8
2017-Jul-13 18:00N 47°16' W 002°48'510.8
2017-Jul-13 17:30N 47°18' W 002°55'510.7
2017-Jul-13 17:00N 47°20' W 003°03'5 0.4
2017-Jul-13 06:08N 47°21' W 003°09'0 2.1
2017-Jul-13 06:00N 47°21' W 003°09'0 0.3
2017-Jul-13 05:30N 47°21' W 003°09'1 1.6
2017-Jul-13 05:00N 47°21' W 003°08'2 4.3
2017-Jul-13 04:30N 47°20' W 003°05'3 5.6
2017-Jul-13 04:00N 47°20' W 003°01'4 8.8
2017-Jul-13 03:30N 47°18' W 002°55'5 9.5
2017-Jul-13 03:00N 47°16' W 002°48'5 9.3
2017-Jul-13 02:29N 47°15' W 002°42'5 9.1
2017-Jul-13 01:58N 47°14' W 002°35'4 9.0
2017-Jul-13 01:30N 47°14' W 002°29'5 9.3
2017-Jul-13 01:00N 47°13' W 002°22'4 8.6
2017-Jul-13 00:30N 47°14' W 002°16'611.7
2017-Jul-13 00:00N 47°18' W 002°09'3 5.9
2017-Jul-12 23:30N 47°18' W 002°05'0 0.0
2017-Jul-12 23:00N 47°18' W 002°05'0 0.0
2017-Jul-12 22:30N 47°18' W 002°05'0 0.0
2017-Jul-12 22:00N 47°18' W 002°05'0 0.0
2017-Jul-12 21:30N 47°18' W 002°05'0 0.0
2017-Jul-12 21:00N 47°18' W 002°05'0 0.0
2017-Jul-12 20:30N 47°18' W 002°05'0 0.0
2017-Jul-12 20:00N 47°18' W 002°05'0 0.0
2017-Jul-12 19:30N 47°18' W 002°05'0 0.0
2017-Jul-12 19:00N 47°18' W 002°05'0 0.0
2017-Jul-12 18:30N 47°18' W 002°05'0 0.0
2017-Jul-12 18:00N 47°18' W 002°05'0 0.0
2017-Jul-12 17:30N 47°18' W 002°05'0 0.0
2017-Jul-12 17:00N 47°18' W 002°05'0 0.0
2017-Jul-12 16:30N 47°18' W 002°05'0 0.0
2017-Jul-12 16:00N 47°18' W 002°05'0 0.0
2017-Jul-12 15:30N 47°18' W 002°05'0 0.0
2017-Jul-12 15:00N 47°18' W 002°05'0 0.0
2017-Jul-12 14:00N 47°18' W 002°05'  

Dump ship's entire track history